Login to view Products
 
Monday, October 22, 2018 (11:03 UTC)
Abu Dhabi International Airport
Last Updated: 22-Oct-2018 (11:02Z)
Wind Dir/Speed: NW at 13 kt
Temperature: 35.5°C
Rel. Humidity: 33 %
Pressure: 1013.1 hPa
Visibility: 10000 m
ACTUALS:
  • METAR OMAA 221100Z 32013KT 9999 FEW045 36/17 Q1013 NOSIG
  • TAF OMAA 221100Z 2212/2318 33012KT 8000 NSC BECMG 2218/2220 04005KT BECMG 2300/2302 16005KT PROB30 2302/2304 4000 HZ BECMG 2307/2309 31012KT=
D:\Input Parser\Destinations\Final\11\OMAAL12181100549174506.txt